»·PEaware :: BADGR13 KEND-KEND

BADGR13 :: KEND-KEND

FLIGHT INFORMATION

Flight Status: Arrived
Operator: Unknown
More flights by this operator :: More flights under this callsign
Pilot: Abraham G. (22221)
Aircraft: BEECH AIRCRAFT T-6A TEXAN
(TEX2)
More flights by this aircraft type
Origin: KEND Vance AFB
United States
Destination: KEND Vance AFB
United States
More flights between these airports :: More routes between these airports
Route: +PNC/D0+15 F22/D0+15
File this flight plan on PilotEdge
Remarks:
Altitude:
(Current/Filed)
0ft
Speed:
(Current/Filed)
0kts
Departed: 15-Sep-20 06:47 AM
Arrived: 15-Sep-20 07:37 AM
Distance/Time
Traveled:
1nm/0:50
Distance/Time
To Go:
Arrived

Flight Plot

Page will automatically refresh every two minutes.

Flight plan parsing failed; only flown route is shown


Map Options




Map Legend


Flown Route
Filed Route
Departure Airport
Arrival Airport
Navaid (VOR, NDB)
Fix

Horizontal Profiles

Position Reports

Time Latitude Longitude Heading Altitude Ground
Speed
15-Sep-20 06:42 36.346971 -97.909990 217 1279ft 0kts
15-Sep-20 06:43 36.346971 -97.909990 217 1279ft 0kts
15-Sep-20 06:44 36.346971 -97.909990 217 1279ft 0kts
15-Sep-20 06:45 36.346971 -97.909990 217 1279ft 0kts
15-Sep-20 06:46 36.337317 -97.910884 178 1444ft 127kts
15-Sep-20 06:47 36.285883 -97.903186 173 2717ft 213kts
15-Sep-20 06:48 36.277250 -97.839250 68 4616ft 239kts
15-Sep-20 06:49 36.304171 -97.756207 63 5067ft 283kts
15-Sep-20 06:50 36.341999 -97.670212 56 4971ft 281kts
15-Sep-20 06:51 36.388548 -97.598430 42 5450ft 267kts
15-Sep-20 06:52 36.442914 -97.534760 41 5472ft 269kts
15-Sep-20 06:53 36.637261 -97.299117 46 5516ft 261kts
15-Sep-20 06:54 36.685333 -97.229561 50 5551ft 270kts
15-Sep-20 06:55 36.734432 -97.160781 34 3957ft 253kts
15-Sep-20 06:56 36.717383 -97.129348 181 2487ft 183kts
15-Sep-20 06:57 36.673198 -97.122630 112 2214ft 122kts
15-Sep-20 06:58 36.693917 -97.099684 0 1606ft 119kts
15-Sep-20 06:59 36.729145 -97.099483 0 1006ft 101kts
15-Sep-20 07:00 36.756584 -97.111031 181 2512ft 178kts
15-Sep-20 07:01 36.714020 -97.109573 161 2090ft 113kts
15-Sep-20 07:02 36.738750 -97.099932 355 1507ft 149kts
15-Sep-20 07:03 36.738909 -97.129450 181 2201ft 231kts
15-Sep-20 07:04 36.682445 -97.124023 123 2007ft 203kts
15-Sep-20 07:05 36.725793 -97.099081 359 2145ft 223kts
15-Sep-20 07:06 36.717200 -97.100111 13 1144ft 116kts
15-Sep-20 07:07 36.753588 -97.099170 358 1916ft 179kts
15-Sep-20 07:08 36.805287 -97.109817 297 4655ft 184kts
15-Sep-20 07:09 36.777661 -97.170265 231 5521ft 251kts
15-Sep-20 07:10 36.387718 -97.256809 174 4062ft 284kts
15-Sep-20 07:11 36.322760 -97.253395 182 2109ft 188kts
15-Sep-20 07:13 36.351541 -97.276523 347 1464ft 135kts
15-Sep-20 07:14 36.386672 -97.277271 358 992ft 118kts
15-Sep-20 07:15 36.425481 -97.262937 95 2344ft 201kts
15-Sep-20 07:16 36.372446 -97.246238 183 2549ft 218kts
15-Sep-20 07:17 36.345109 -97.224524 322 3117ft 193kts
15-Sep-20 07:18 36.337115 -97.215334 359 3107ft 224kts
15-Sep-20 07:19 36.329170 -97.208924 72 4030ft 213kts
15-Sep-20 07:20 36.349621 -97.218802 189 3229ft 216kts
15-Sep-20 07:21 36.350847 -97.161191 64 3828ft 217kts
15-Sep-20 07:22 36.353626 -97.215951 266 4347ft 192kts
15-Sep-20 07:23 36.352438 -97.289334 268 4567ft 229kts
15-Sep-20 07:24 36.353204 -97.370100 271 4785ft 229kts
15-Sep-20 07:25 36.357537 -97.446540 273 6055ft 235kts
15-Sep-20 07:26 36.361266 -97.530389 274 6059ft 246kts
15-Sep-20 07:27 36.363985 -97.614987 272 6074ft 250kts
15-Sep-20 07:28 36.362552 -97.701831 270 5976ft 252kts
15-Sep-20 07:28 36.367228 -97.773986 280 5862ft 252kts
15-Sep-20 07:30 36.428593 -97.798406 357 4054ft 214kts
15-Sep-20 07:31 36.450230 -97.835987 258 2179ft 136kts
15-Sep-20 07:31 36.468971 -97.878765 304 2235ft 195kts
15-Sep-20 07:33 36.426895 -97.906082 183 2363ft 204kts
15-Sep-20 07:34 36.369077 -97.910998 178 2260ft 212kts
15-Sep-20 07:34 36.346006 -97.899855 359 2211ft 163kts
15-Sep-20 07:35 36.348620 -97.911027 180 1333ft 97kts
15-Sep-20 07:36 36.333692 -97.910897 137 1291ft 14kts
15-Sep-20 07:37 36.333829 -97.910121 45 1291ft 0kts
15-Sep-20 07:38 36.333829 -97.910121 45 1291ft 0kts
15-Sep-20 07:39 36.333829 -97.910121 45 1291ft 0kts
15-Sep-20 07:40 36.333829 -97.910121 45 1291ft 0kts
15-Sep-20 07:41 36.335785 -97.905487 45 1298ft 0kts
15-Sep-20 07:42 36.374413 -97.786302 353 6042ft 30kts
15-Sep-20 07:43 36.385248 -97.787566 351 5491ft 150kts
15-Sep-20 07:44 36.430929 -97.788641 354 4997ft 199kts
15-Sep-20 07:45 36.485670 -97.807064 288 4224ft 233kts
15-Sep-20 07:46 36.492220 -97.882263 256 2519ft 199kts
15-Sep-20 07:47 36.451011 -97.906283 182 2042ft 163kts
15-Sep-20 07:48 36.413142 -97.906601 179 1834ft 105kts
15-Sep-20 07:49 36.382702 -97.907137 182 1843ft 113kts
15-Sep-20 07:50 36.352500 -97.910962 181 1473ft 104kts

Navigation Log

Ident Type
Flight plan parsing failed, navigation log unavailable